CYDP/YDP METAR and TAF weather

Enter ICAO airport designator
Station Type Date Time Source
CYDP METAR 2018/01/19 22:00 UTC NOAA

CYDP 192200Z 29018KT 15SM FEW220 M19/M25 A2957 RMK CI1 CI TR SLP016


Station Type Date Time Source
CYDP Decoded METAR 2018/01/19 22:00 UTC NOAA

Nain, Nfld, Canada (CYDP) 56-33N 061-41W 7M
Jan 19, 2018 - 05:00 PM EST / 2018.01.19 2200 UTC
Wind: from the WNW (290 degrees) at 21 MPH (18 KT):0
Visibility: 15 mile(s):0
Sky conditions: mostly clear
Temperature: -2 F (-19 C)
Windchill: -25 F (-32 C):2
Dew Point: -13 F (-25 C)
Relative Humidity: 59%
Pressure (altimeter): 29.57 in. Hg (1001 hPa)
ob: CYDP 192200Z 29018KT 15SM FEW220 M19/M25 A2957 RMK CI1 CI TR SLP016
cycle: 22

Station Type Date Time Source
CYDP TAF 2018/01/19 20:00 UTC NOAA

TAF CYDP 191939Z 1920/1924 28010KT P6SM SCT220
RMK NXT FCST WILL BE ISSUED AT 201045Z


Example: see airport list